Time;durP1;ratioP1;P1;durP2;ratioP2;P2;SDS_P1;SDS_P2;PMS_P1;PMS_P2;Temp;Humidity;BMP_temperature;BMP_pressure;BME280_temperature;BME280_humidity;BME280_pressure;Samples;Min_cycle;Max_cycle;Signal;HPM_P1;HPM_P2
2022/05/05 00:01:40;;;;;;;4.95;4.07;;;8.90;99.90;;;;;;4996409;28;20088;-63
2022/05/05 00:04:07;;;;;;;5.03;3.25;;;8.80;99.90;;;;;;4997057;28;20998;-64
2022/05/05 00:06:34;;;;;;;4.13;3.72;;;8.90;99.90;;;;;;4996641;28;20108;-64
2022/05/05 00:09:02;;;;;;;6.22;4.40;;;8.90;99.90;;;;;;4995672;28;20766;-63
2022/05/05 00:14:23;;;;;;;4.38;3.92;;;8.90;99.90;;;;;;5011554;28;20136;-64
2022/05/05 00:17:09;;;;;;;6.60;4.47;;;8.90;99.90;;;;;;5009287;28;20693;-64
2022/05/05 00:19:41;;;;;;;6.38;4.47;;;8.90;99.90;;;;;;5015446;28;20107;-63
2022/05/05 00:22:09;;;;;;;6.72;4.88;;;8.90;99.90;;;;;;5015912;28;20076;-63
2022/05/05 00:24:39;;;;;;;11.30;4.78;;;8.90;99.90;;;;;;5016070;28;20510;-64
2022/05/05 00:27:07;;;;;;;8.50;4.45;;;8.90;99.90;;;;;;5014144;28;20931;-63
2022/05/05 00:29:34;;;;;;;5.07;4.32;;;8.90;99.90;;;;;;5015956;28;20037;-64
2022/05/05 00:32:02;;;;;;;5.43;4.07;;;8.80;99.90;;;;;;5016108;28;20041;-63
2022/05/05 00:34:29;;;;;;;5.07;4.10;;;8.80;99.90;;;;;;5015865;28;20069;-64
2022/05/05 00:36:56;;;;;;;5.25;3.53;;;8.90;99.90;;;;;;5014871;28;20048;-63
2022/05/05 00:39:23;;;;;;;7.25;3.97;;;8.90;99.90;;;;;;5015146;28;20061;-63
2022/05/05 00:41:50;;;;;;;;;;;8.90;99.90;;;;;;5016116;28;20056;-63
2022/05/05 00:44:17;;;;;;;5.60;3.83;;;8.90;99.90;;;;;;5015575;28;19932;-64
2022/05/05 00:46:49;;;;;;;4.38;3.95;;;8.90;99.90;;;;;;5015246;28;20045;-63
2022/05/05 00:49:16;;;;;;;7.15;3.80;;;8.90;99.90;;;;;;5015988;28;20042;-64
2022/05/05 00:51:43;;;;;;;8.30;4.18;;;8.90;99.90;;;;;;5005642;28;20065;-63
2022/05/05 00:54:11;;;;;;;5.28;3.95;;;8.90;99.90;;;;;;5015663;28;20049;-65
2022/05/05 00:56:38;;;;;;;5.63;4.13;;;8.90;99.90;;;;;;5015067;28;20103;-63
2022/05/05 00:59:05;;;;;;;6.03;3.80;;;8.90;99.90;;;;;;5015051;28;20698;-63
2022/05/05 01:01:33;;;;;;;4.55;3.53;;;8.90;99.90;;;;;;5014279;28;20303;-63
2022/05/05 01:04:01;;;;;;;5.90;4.00;;;8.90;99.90;;;;;;5015734;28;20082;-63
2022/05/05 01:06:29;;;;;;;5.45;3.83;;;8.90;99.90;;;;;;5014984;28;20633;-63
2022/05/05 01:08:55;;;;;;;4.18;3.67;;;8.90;99.90;;;;;;5014095;28;20780;-63
2022/05/05 01:11:22;;;;;;;3.65;3.35;;;8.80;99.90;;;;;;5015475;28;20041;-63
2022/05/05 01:13:49;;;;;;;;;;;8.80;99.90;;;;;;5015564;28;20041;-63
2022/05/05 01:16:17;;;;;;;6.03;4.03;;;8.80;99.90;;;;;;5015057;28;19994;-64
2022/05/05 01:18:44;;;;;;;4.75;3.92;;;8.80;99.90;;;;;;5013585;28;20475;-63
2022/05/05 01:21:11;;;;;;;5.40;3.75;;;8.80;99.90;;;;;;5015183;28;20111;-63
2022/05/05 01:23:38;;;;;;;5.47;3.65;;;8.70;99.90;;;;;;5014573;28;20523;-63
2022/05/05 01:28:52;;;;;;;4.32;3.60;;;8.70;99.90;;;;;;5014205;28;20045;-63
2022/05/05 01:31:19;;;;;;;6.97;3.70;;;8.60;99.90;;;;;;5014120;28;20033;-64
2022/05/05 01:33:46;;;;;;;;;;;8.60;99.90;;;;;;5015926;28;20052;-63
2022/05/05 01:36:13;;;;;;;7.33;4.27;;;8.50;99.90;;;;;;5014372;28;20012;-63
2022/05/05 01:38:41;;;;;;;8.55;4.63;;;8.50;99.90;;;;;;5012650;28;20052;-63
2022/05/05 01:41:13;;;;;;;5.57;4.28;;;8.40;99.90;;;;;;5014101;28;20111;-63
2022/05/05 01:43:42;;;;;;;5.13;4.10;;;8.30;99.90;;;;;;5015174;28;20103;-64
2022/05/05 01:46:09;;;;;;;9.25;5.53;;;8.30;99.90;;;;;;5014163;28;20076;-63
2022/05/05 01:48:36;;;;;;;6.22;5.03;;;8.30;99.90;;;;;;5013620;28;20120;-63
2022/05/05 01:51:04;;;;;;;;;;;8.30;99.90;;;;;;5012089;28;20069;-63
2022/05/05 01:53:37;;;;;;;7.22;5.93;;;8.20;99.90;;;;;;5009785;28;19983;-63
2022/05/05 01:56:13;;;;;;;6.95;5.30;;;8.20;99.90;;;;;;5014662;28;20080;-63
2022/05/05 01:58:44;;;;;;;6.03;5.43;;;8.20;99.90;;;;;;5013437;28;20131;-63
2022/05/05 02:01:12;;;;;;;11.70;6.57;;;8.20;99.90;;;;;;5014550;28;20055;-63
2022/05/05 02:03:39;;;;;;;11.23;7.82;;;8.20;99.90;;;;;;5014144;28;20041;-63
2022/05/05 02:06:07;;;;;;;11.57;8.73;;;8.20;99.90;;;;;;5014344;28;20051;-64
2022/05/05 02:08:35;;;;;;;15.63;7.78;;;8.20;99.90;;;;;;5012700;28;20124;-63
2022/05/05 02:11:02;;;;;;;9.20;7.15;;;8.10;99.90;;;;;;5014335;28;20052;-63
2022/05/05 02:13:29;;;;;;;;;;;8.20;99.90;;;;;;5015088;28;20091;-63
2022/05/05 02:15:56;;;;;;;8.73;7.37;;;8.20;99.90;;;;;;5007882;28;19953;-63
2022/05/05 02:18:23;;;;;;;;;;;8.20;99.90;;;;;;5013526;28;20053;-63
2022/05/05 02:20:50;;;;;;;8.18;7.03;;;8.20;99.90;;;;;;4992640;28;20043;-63
2022/05/05 02:23:16;;;;;;;;;;;8.20;99.90;;;;;;4995098;28;20060;-63
2022/05/05 02:25:43;;;;;;;10.35;7.45;;;8.20;99.90;;;;;;4992168;28;19949;-63
2022/05/05 02:28:10;;;;;;;13.20;8.63;;;8.30;99.90;;;;;;4994010;28;20048;-63
2022/05/05 02:30:37;;;;;;;11.00;8.82;;;8.20;99.90;;;;;;4994036;28;20751;-63
2022/05/05 02:33:04;;;;;;;;;;;8.30;99.90;;;;;;4995116;28;20073;-63
2022/05/05 02:35:31;;;;;;;12.77;8.70;;;8.30;99.90;;;;;;5010442;28;19929;-63
2022/05/05 02:40:43;;;;;;;17.73;8.48;;;8.20;99.90;;;;;;5013552;28;19947;-63
2022/05/05 02:43:10;;;;;;;;;;;8.20;99.90;;;;;;5014017;28;20115;-63
2022/05/05 02:45:37;;;;;;;19.58;10.05;;;8.20;99.90;;;;;;5013327;28;20053;-63
2022/05/05 02:48:04;;;;;;;;;;;8.20;99.90;;;;;;5012795;28;20045;-63
2022/05/05 02:50:31;;;;;;;19.98;11.90;;;8.20;99.90;;;;;;5013625;28;19999;-63
2022/05/05 02:52:58;;;;;;;12.80;10.93;;;8.20;99.90;;;;;;5006701;28;20040;-64
2022/05/05 02:55:26;;;;;;;16.33;11.13;;;8.20;99.90;;;;;;4996755;28;20073;-63
2022/05/05 02:57:53;;;;;;;15.40;10.18;;;8.30;99.90;;;;;;4993589;28;20042;-63
2022/05/05 03:00:20;;;;;;;;;;;8.30;99.90;;;;;;4995807;28;20042;-63
2022/05/05 03:02:47;;;;;;;19.27;11.70;;;8.30;99.90;;;;;;5013089;28;19929;-63
2022/05/05 03:05:14;;;;;;;;;;;8.30;99.90;;;;;;5014326;28;20452;-63
2022/05/05 03:07:41;;;;;;;12.15;9.05;;;8.30;99.90;;;;;;5012512;28;20018;-63
2022/05/05 03:10:09;;;;;;;17.10;9.23;;;8.40;99.90;;;;;;5013336;28;20455;-63
2022/05/05 03:12:36;;;;;;;13.68;9.73;;;8.40;99.90;;;;;;5013447;28;20099;-63
2022/05/05 03:15:03;;;;;;;;;;;8.40;99.90;;;;;;5014114;28;20106;-63
2022/05/05 03:17:31;;;;;;;10.50;7.80;;;8.40;99.90;;;;;;5012014;28;19976;-63
2022/05/05 03:19:58;;;;;;;11.35;8.18;;;8.40;99.90;;;;;;5012349;28;20060;-63
2022/05/05 03:22:25;;;;;;;;;;;8.40;99.90;;;;;;5013301;28;20139;-63
2022/05/05 03:24:52;;;;;;;11.50;8.00;;;8.40;99.90;;;;;;5013357;28;19932;-63
2022/05/05 03:27:18;;;;;;;;;;;8.40;99.90;;;;;;5013311;28;20569;-63
2022/05/05 03:29:45;;;;;;;10.80;8.38;;;8.40;99.90;;;;;;5013149;28;20563;-63
2022/05/05 03:32:13;;;;;;;;;;;8.40;99.90;;;;;;5014042;28;20041;-63
2022/05/05 03:34:40;;;;;;;9.30;6.20;;;8.40;99.90;;;;;;5012937;28;19921;-63
2022/05/05 03:37:06;;;;;;;8.90;5.80;;;8.40;99.90;;;;;;5012034;28;20042;-63
2022/05/05 03:39:33;;;;;;;;;;;8.50;99.90;;;;;;5013779;28;20045;-64
2022/05/05 03:42:00;;;;;;;14.18;6.90;;;8.40;99.90;;;;;;5013449;28;19928;-63
2022/05/05 03:44:27;;;;;;;;;;;8.40;99.90;;;;;;5013340;28;20447;-64
2022/05/05 03:46:53;;;;;;;12.05;6.07;;;8.40;99.90;;;;;;5012466;28;19995;-65
2022/05/05 03:49:20;;;;;;;7.13;5.65;;;8.40;99.90;;;;;;5013150;28;20065;-64
2022/05/05 03:51:47;;;;;;;;;;;8.40;99.90;;;;;;5013207;28;20044;-63
2022/05/05 03:54:14;;;;;;;7.90;5.70;;;8.30;99.90;;;;;;5011055;28;19931;-64
2022/05/05 03:56:41;;;;;;;7.03;5.78;;;8.40;99.90;;;;;;4992451;28;20823;-64
2022/05/05 03:59:07;;;;;;;7.90;5.90;;;8.30;99.90;;;;;;4992835;28;20050;-63
2022/05/05 04:01:34;;;;;;;;;;;8.40;99.90;;;;;;4993127;28;20108;-64
2022/05/05 04:04:01;;;;;;;7.85;5.53;;;8.40;99.90;;;;;;4995926;28;20039;-64
2022/05/05 04:06:28;;;;;;;6.20;5.40;;;8.40;99.90;;;;;;4995959;28;20116;-64
2022/05/05 04:08:55;;;;;;;;;;;8.40;99.90;;;;;;4996342;28;20042;-63
2022/05/05 04:11:21;;;;;;;7.68;6.03;;;8.40;99.90;;;;;;4996819;28;19987;-64
2022/05/05 04:13:48;;;;;;;;;;;8.40;99.90;;;;;;4994804;28;20053;-63
2022/05/05 04:16:15;;;;;;;12.70;8.18;;;8.40;99.90;;;;;;5005696;28;19950;-64
2022/05/05 04:18:43;;;;;;;8.82;7.15;;;8.40;99.90;;;;;;5015110;28;20048;-56
2022/05/05 04:21:10;;;;;;;10.73;6.70;;;8.30;99.90;;;;;;5016070;28;20049;-57
2022/05/05 04:23:37;;;;;;;10.00;7.30;;;8.30;99.90;;;;;;5016648;28;20045;-55
2022/05/05 04:26:13;;;;;;;9.65;7.20;;;8.20;99.90;;;;;;5014639;28;20050;-56
2022/05/05 04:28:42;;;;;;;11.80;7.85;;;8.20;99.90;;;;;;5015420;28;20041;-58
2022/05/05 04:31:14;;;;;;;10.35;6.68;;;8.20;99.90;;;;;;5015463;28;20135;-56
2022/05/05 04:33:42;;;;;;;11.63;7.25;;;8.10;99.90;;;;;;5016687;28;20041;-56
2022/05/05 04:36:10;;;;;;;12.02;7.18;;;8.10;99.90;;;;;;5013751;28;20041;-57
2022/05/05 04:38:37;;;;;;;8.48;6.25;;;8.20;99.90;;;;;;5015561;28;20040;-58
2022/05/05 04:41:04;;;;;;;9.30;6.38;;;8.20;99.90;;;;;;5015209;28;20049;-56
2022/05/05 04:43:31;;;;;;;;;;;8.30;99.90;;;;;;5015852;28;20050;-55
2022/05/05 04:45:58;;;;;;;8.45;6.68;;;8.30;99.90;;;;;;5013389;28;19948;-55
2022/05/05 04:48:25;;;;;;;9.20;6.60;;;8.40;99.90;;;;;;5012319;28;20063;-55
2022/05/05 04:50:51;;;;;;;;;;;8.50;99.90;;;;;;5015863;28;20037;-56
2022/05/05 04:53:18;;;;;;;8.85;6.53;;;8.50;99.90;;;;;;5015587;28;19947;-54
2022/05/05 04:55:45;;;;;;;7.47;6.10;;;8.60;99.90;;;;;;5011000;28;20147;-56
2022/05/05 04:58:12;;;;;;;8.20;6.28;;;8.60;99.90;;;;;;5014474;28;20564;-57
2022/05/05 05:00:39;;;;;;;;;;;8.70;99.90;;;;;;5015229;28;20385;-54
2022/05/05 05:03:32;;;;;;;9.35;6.28;;;8.80;99.90;;;;;;5013035;28;19936;-56
2022/05/05 05:05:52;;;;;;;12.00;7.68;;;8.90;99.90;;;;;;5015176;28;20068;-57
2022/05/05 05:08:19;;;;;;;8.80;6.63;;;9.00;99.90;;;;;;5014898;28;20055;-55
2022/05/05 05:10:46;;;;;;;13.13;8.05;;;9.10;99.90;;;;;;5014725;28;20377;-56
2022/05/05 05:13:15;;;;;;;9.77;6.82;;;9.20;99.90;;;;;;5015330;28;20046;-55
2022/05/05 05:15:42;;;;;;;;;;;9.30;99.90;;;;;;5015547;28;20041;-56
2022/05/05 05:18:10;;;;;;;10.47;6.00;;;9.40;99.90;;;;;;5014170;28;20565;-58
2022/05/05 05:20:36;;;;;;;9.15;6.00;;;9.50;99.90;;;;;;5014148;28;20041;-56
2022/05/05 05:23:03;;;;;;;10.35;6.70;;;9.50;99.90;;;;;;5015073;28;20049;-55
2022/05/05 05:25:30;;;;;;;9.50;6.82;;;9.70;99.90;;;;;;5014352;28;20091;-55
2022/05/05 05:28:02;;;;;;;8.77;7.20;;;9.80;99.90;;;;;;5011873;28;20041;-56
2022/05/05 05:30:39;;;;;;;7.13;5.82;;;9.80;99.90;;;;;;5014780;28;20239;-56
2022/05/05 05:33:07;;;;;;;6.57;5.97;;;9.90;99.90;;;;;;5013849;28;20041;-55
2022/05/05 05:35:35;;;;;;;6.82;5.43;;;10.00;99.90;;;;;;5014614;28;20056;-54
2022/05/05 05:38:02;;;;;;;11.23;5.70;;;10.00;99.90;;;;;;5013288;28;20132;-55
2022/05/05 05:40:29;;;;;;;9.05;6.00;;;10.10;99.90;;;;;;5014498;28;20045;-53
2022/05/05 05:42:56;;;;;;;;;;;10.20;99.90;;;;;;5014781;28;20049;-52
2022/05/05 05:45:24;;;;;;;11.07;7.10;;;10.20;99.90;;;;;;5015223;28;19924;-54
2022/05/05 05:47:51;;;;;;;7.53;6.20;;;10.30;99.90;;;;;;5013678;28;20046;-53
2022/05/05 05:50:18;;;;;;;12.57;5.95;;;10.30;99.90;;;;;;5014805;28;20613;-53
2022/05/05 05:52:45;;;;;;;8.15;5.55;;;10.30;99.90;;;;;;5013844;28;20049;-53
2022/05/05 05:55:12;;;;;;;8.13;6.90;;;10.40;99.90;;;;;;5013523;28;20041;-55
2022/05/05 05:57:39;;;;;;;8.05;6.50;;;10.40;99.90;;;;;;5012264;28;20053;-53
2022/05/05 06:00:06;;;;;;;;;;;10.50;99.90;;;;;;5013908;28;20140;-52
2022/05/05 06:05:25;;;;;;;6.18;5.57;;;10.60;99.90;;;;;;5014276;28;20045;-55
2022/05/05 06:07:58;;;;;;;7.15;5.35;;;10.70;99.90;;;;;;5013566;28;20045;-57
2022/05/05 06:10:25;;;;;;;8.52;6.72;;;10.70;99.90;;;;;;5012484;28;20760;-57
2022/05/05 06:12:53;;;;;;;10.70;6.60;;;10.80;99.90;;;;;;5014324;28;20045;-56
2022/05/05 06:15:22;;;;;;;9.52;7.05;;;10.80;99.90;;;;;;5012484;28;20052;-55
2022/05/05 06:17:50;;;;;;;7.35;6.03;;;10.90;99.90;;;;;;5009739;28;20042;-54
2022/05/05 06:20:17;;;;;;;8.98;6.43;;;11.00;99.90;;;;;;5013124;28;20057;-56
2022/05/05 06:22:44;;;;;;;7.28;6.30;;;11.00;99.90;;;;;;5014252;28;20049;-57
2022/05/05 06:25:14;;;;;;;;;;;11.10;99.90;;;;;;5014520;28;20053;-57
2022/05/05 06:27:41;;;;;;;6.85;5.82;;;11.10;99.90;;;;;;5011803;28;19932;-53
2022/05/05 06:30:15;;;;;;;7.55;6.10;;;11.20;99.90;;;;;;5014022;28;20046;-56
2022/05/05 06:32:41;;;;;;;;;;;11.20;99.90;;;;;;5014283;28;20042;-55
2022/05/05 06:35:09;;;;;;;7.82;5.90;;;11.30;99.90;;;;;;5014286;28;19925;-55
2022/05/05 06:37:36;;;;;;;11.32;6.40;;;11.40;99.90;;;;;;5012937;28;20993;-55
2022/05/05 06:40:04;;;;;;;9.60;5.68;;;11.40;99.90;;;;;;5013176;28;20053;-55
2022/05/05 06:42:31;;;;;;;9.07;6.30;;;11.50;99.90;;;;;;5013619;28;20068;-54
2022/05/05 06:44:59;;;;;;;8.15;6.72;;;11.60;99.90;;;;;;5013441;28;20052;-55
2022/05/05 06:47:26;;;;;;;7.03;5.85;;;11.70;99.90;;;;;;5012607;28;20041;-54
2022/05/05 06:49:53;;;;;;;;;;;11.80;99.90;;;;;;5013328;28;20136;-54
2022/05/05 06:52:19;;;;;;;9.55;6.70;;;11.90;99.90;;;;;;5014113;28;19982;-54
2022/05/05 06:55:06;;;;;;;12.40;6.05;;;12.00;99.90;;;;;;5013142;28;20049;-54
2022/05/05 06:57:33;;;;;;;9.45;7.00;;;12.10;99.90;;;;;;5002874;28;20506;-58
2022/05/05 07:00:00;;;;;;;9.95;6.78;;;12.20;99.90;;;;;;5013433;28;21015;-56
2022/05/05 07:02:27;;;;;;;;;;;12.30;99.90;;;;;;5014232;28;20152;-55
2022/05/05 07:07:39;;;;;;;10.07;7.15;;;12.50;99.90;;;;;;5012553;28;20612;-56
2022/05/05 07:12:51;;;;;;;8.50;6.78;;;12.80;99.90;;;;;;5013692;28;19925;-57
2022/05/05 07:15:18;;;;;;;;;;;12.90;99.90;;;;;;5011327;28;20042;-52
2022/05/05 07:17:46;;;;;;;7.85;6.35;;;13.00;99.90;;;;;;5008244;28;19925;-51
2022/05/05 07:20:13;;;;;;;8.63;7.13;;;13.20;99.90;;;;;;5011609;28;20045;-48
2022/05/05 07:22:40;;;;;;;5.93;5.22;;;13.30;99.90;;;;;;5013103;28;20045;-49
2022/05/05 07:25:08;;;;;;;8.73;6.15;;;13.40;99.90;;;;;;5012874;28;20053;-49
2022/05/05 07:27:34;;;;;;;6.78;5.63;;;13.60;99.90;;;;;;5012894;28;20038;-51
2022/05/05 07:30:01;;;;;;;;;;;13.70;99.90;;;;;;5011881;28;20531;-57
2022/05/05 07:32:28;;;;;;;7.50;5.50;;;13.80;99.90;;;;;;5013824;28;19925;-56
2022/05/05 07:34:59;;;;;;;5.18;4.68;;;13.90;99.90;;;;;;5012077;28;20045;-56
2022/05/05 07:37:26;;;;;;;;;;;14.00;99.90;;;;;;5015680;28;20107;-55
2022/05/05 07:39:53;;;;;;;7.68;5.55;;;14.10;99.90;;;;;;5016019;28;19925;-55
2022/05/05 07:42:20;;;;;;;;;;;14.10;99.90;;;;;;5017085;28;20050;-57
2022/05/05 07:44:47;;;;;;;14.50;4.57;;;14.10;99.90;;;;;;5017417;28;20395;-57
2022/05/05 07:47:13;;;;;;;;;;;14.10;99.90;;;;;;5016278;28;20060;-57
2022/05/05 07:49:40;;;;;;;4.70;4.20;;;14.10;99.90;;;;;;5017036;28;19928;-56
2022/05/05 07:52:07;;;;;;;;;;;14.10;99.90;;;;;;5015583;28;20045;-58
2022/05/05 07:54:43;;;;;;;4.40;3.25;;;14.10;99.90;;;;;;5016479;28;19925;-57
2022/05/05 07:57:14;;;;;;;4.43;4.03;;;14.10;99.90;;;;;;5010780;28;20133;-57
2022/05/05 07:59:44;;;;;;;5.05;4.47;;;14.10;99.90;;;;;;5023034;28;20490;-56
2022/05/05 08:02:14;;;;;;;7.15;5.30;;;14.10;99.90;;;;;;4996244;28;20057;-57
2022/05/05 08:04:42;;;;;;;7.93;6.10;;;14.10;99.90;;;;;;4997436;28;20797;-57
2022/05/05 08:07:09;;;;;;;5.88;4.68;;;14.10;99.90;;;;;;4995742;28;20775;-57
2022/05/05 08:09:36;;;;;;;7.28;5.97;;;14.10;99.90;;;;;;4996395;28;20050;-58
2022/05/05 08:12:23;;;;;;;7.23;6.50;;;14.20;99.90;;;;;;4995490;28;20353;-61
2022/05/05 08:14:50;;;;;;;7.80;6.72;;;14.20;99.90;;;;;;4995393;28;20108;-57
2022/05/05 08:17:16;;;;;;;;;;;14.10;99.90;;;;;;5013653;28;20041;-56
2022/05/05 08:19:43;;;;;;;8.73;6.80;;;14.10;99.90;;;;;;5015634;28;19932;-57
2022/05/05 08:22:10;;;;;;;;;;;14.10;99.90;;;;;;5015571;28;20045;-54
2022/05/05 08:30:08;;;;;;;11.77;4.90;;;14.00;99.90;;;;;;5015101;28;20037;-55
2022/05/05 08:32:35;;;;;;;5.03;4.47;;;14.00;99.90;;;;;;5016342;28;20505;-57
2022/05/05 08:35:02;;;;;;;;;;;14.00;99.90;;;;;;5017129;28;20038;-57
2022/05/05 08:37:29;;;;;;;5.38;4.75;;;14.10;99.90;;;;;;5014984;28;19921;-56
2022/05/05 08:39:55;;;;;;;;;;;14.10;99.90;;;;;;5016589;28;20042;-56
2022/05/05 08:42:24;;;;;;;4.82;3.85;;;14.10;99.90;;;;;;5015496;28;19925;-52
2022/05/05 08:44:51;;;;;;;5.25;4.38;;;14.10;99.90;;;;;;5016320;28;20507;-55
2022/05/05 08:47:23;;;;;;;4.30;3.88;;;14.00;99.90;;;;;;5014229;28;20045;-54
2022/05/05 08:49:57;;;;;;;4.43;4.03;;;14.00;99.90;;;;;;5007901;28;20041;-56
2022/05/05 08:52:24;;;;;;;4.00;3.60;;;14.00;99.90;;;;;;5015518;28;20049;-55
2022/05/05 08:54:51;;;;;;;4.55;3.85;;;14.10;99.90;;;;;;5015809;28;20045;-55
2022/05/05 08:57:19;;;;;;;5.68;3.70;;;14.10;99.90;;;;;;5015332;28;20610;-55
2022/05/05 08:59:45;;;;;;;3.95;3.50;;;14.20;99.90;;;;;;5005443;28;20065;-55
2022/05/05 09:02:12;;;;;;;;;;;14.30;99.90;;;;;;5015972;28;20144;-57
2022/05/05 09:04:44;;;;;;;5.00;3.90;;;14.30;99.90;;;;;;5015873;28;20422;-56
2022/05/05 09:07:11;;;;;;;5.75;5.10;;;14.30;99.90;;;;;;5013651;28;20041;-56
2022/05/05 09:09:38;;;;;;;;;;;14.40;99.90;;;;;;5015385;28;20945;-57
2022/05/05 09:12:18;;;;;;;8.27;5.90;;;14.40;99.90;;;;;;5015431;28;19925;-57
2022/05/05 09:14:53;;;;;;;7.35;5.00;;;14.40;99.90;;;;;;5015457;28;20103;-56
2022/05/05 09:17:27;;;;;;;6.53;5.55;;;14.40;99.90;;;;;;5008854;28;20057;-57
2022/05/05 09:19:55;;;;;;;7.03;6.32;;;14.50;99.90;;;;;;5014456;28;20049;-57
2022/05/05 09:22:25;;;;;;;7.00;5.60;;;14.50;99.90;;;;;;5014727;28;20448;-56
2022/05/05 09:24:56;;;;;;;4.70;4.30;;;14.50;99.90;;;;;;5013701;28;20561;-55
2022/05/05 09:27:31;;;;;;;5.00;4.38;;;14.60;99.90;;;;;;5014354;28;20056;-57
2022/05/05 09:30:00;;;;;;;5.90;5.05;;;14.70;99.90;;;;;;5015202;28;20056;-58
2022/05/05 09:32:38;;;;;;;7.10;5.40;;;14.80;99.90;;;;;;5014165;28;20046;-58
2022/05/05 09:35:16;;;;;;;7.78;6.55;;;15.00;99.90;;;;;;5014942;28;20053;-57
2022/05/05 09:37:45;;;;;;;6.80;5.93;;;15.00;99.90;;;;;;5013893;28;20045;-58
2022/05/05 09:40:17;;;;;;;6.80;4.90;;;15.00;99.90;;;;;;5014688;28;20084;-58
2022/05/05 09:42:52;;;;;;;10.23;7.22;;;15.00;99.90;;;;;;5014596;28;20053;-56
2022/05/05 09:45:25;;;;;;;10.32;7.80;;;15.10;99.90;;;;;;5013295;28;20049;-57
2022/05/05 09:47:54;;;;;;;8.38;7.13;;;15.00;99.90;;;;;;5013292;28;20057;-57
2022/05/05 09:50:23;;;;;;;8.07;6.50;;;15.00;99.90;;;;;;5013690;28;20041;-56
2022/05/05 09:58:26;;;;;;;7.88;6.38;;;15.20;99.90;;;;;;5013982;28;20049;-57
2022/05/05 10:06:19;;;;;;;11.23;8.45;;;15.30;99.90;;;;;;5014091;28;20046;-58
2022/05/05 10:08:54;;;;;;;11.75;8.38;;;15.30;99.90;;;;;;5013403;28;20049;-58
2022/05/05 10:11:25;;;;;;;10.43;8.15;;;15.20;99.90;;;;;;5013697;28;20580;-57
2022/05/05 10:13:52;;;;;;;9.05;7.25;;;15.00;99.90;;;;;;5014306;28;20041;-54
2022/05/05 10:16:19;;;;;;;10.93;7.18;;;14.90;99.90;;;;;;5013535;28;20037;-57
2022/05/05 10:18:47;;;;;;;7.68;6.90;;;14.80;99.90;;;;;;5013095;28;20042;-58
2022/05/05 10:21:20;;;;;;;9.13;6.93;;;14.80;99.90;;;;;;5014046;28;20212;-58
2022/05/05 10:23:50;;;;;;;6.43;5.82;;;14.80;99.90;;;;;;5013939;28;20049;-57
2022/05/05 10:26:24;;;;;;;7.72;6.93;;;14.80;99.90;;;;;;5013785;28;20056;-57
2022/05/05 10:28:52;;;;;;;9.63;6.22;;;14.80;99.90;;;;;;5013185;28;20160;-57
2022/05/05 10:31:31;;;;;;;9.45;7.55;;;14.80;99.90;;;;;;5013740;28;20050;-57
2022/05/05 10:34:00;;;;;;;7.90;7.03;;;14.90;99.90;;;;;;5013706;28;21017;-58
2022/05/05 10:36:28;;;;;;;11.18;8.32;;;14.90;99.90;;;;;;5013723;28;20049;-57
2022/05/05 10:38:56;;;;;;;12.88;8.73;;;14.90;99.90;;;;;;5012912;28;20296;-57
2022/05/05 10:41:40;;;;;;;8.77;7.93;;;14.90;99.90;;;;;;5013630;28;20045;-55
2022/05/05 10:44:19;;;;;;;8.43;7.50;;;14.90;99.90;;;;;;5013663;28;20049;-56
2022/05/05 10:47:03;;;;;;;9.15;6.80;;;14.90;99.90;;;;;;5011654;28;20160;-55
2022/05/05 10:49:42;;;;;;;7.13;5.93;;;14.90;99.90;;;;;;5013908;28;20049;-54
2022/05/05 10:52:11;;;;;;;8.70;7.50;;;14.90;99.90;;;;;;5012137;28;20049;-57
2022/05/05 10:54:39;;;;;;;9.75;6.20;;;14.90;99.90;;;;;;5013608;28;20733;-56
2022/05/05 10:57:25;;;;;;;14.02;8.95;;;15.00;99.90;;;;;;5012368;28;20041;-56
2022/05/05 11:00:18;;;;;;;7.35;6.53;;;14.90;99.90;;;;;;5008636;28;21044;-55
2022/05/05 11:02:58;;;;;;;8.18;7.38;;;14.90;99.90;;;;;;4998429;28;20037;-56
2022/05/05 11:05:30;;;;;;;21.70;9.38;;;15.00;99.90;;;;;;5013463;28;20045;-58
2022/05/05 11:08:07;;;;;;;8.52;6.40;;;15.00;99.90;;;;;;5012226;28;20041;-58
2022/05/05 11:10:40;;;;;;;8.50;7.50;;;15.00;99.90;;;;;;5014591;28;20049;-57
2022/05/05 11:13:28;;;;;;;8.30;7.50;;;15.10;99.90;;;;;;5017476;28;20100;-56
2022/05/05 11:21:37;;;;;;;11.45;8.75;;;15.20;99.90;;;;;;5017312;28;20048;-57
2022/05/05 11:24:05;;;;;;;7.45;6.75;;;15.10;99.90;;;;;;5016574;28;20045;-57
2022/05/05 11:26:32;;;;;;;10.10;7.70;;;15.10;99.90;;;;;;5016384;28;20053;-57
2022/05/05 11:29:00;;;;;;;10.95;8.02;;;15.10;99.90;;;;;;5016103;28;20047;-57
2022/05/05 11:31:30;;;;;;;12.38;7.93;;;15.20;99.90;;;;;;5015687;28;20049;-56
2022/05/05 11:34:00;;;;;;;14.77;8.57;;;15.20;99.90;;;;;;5017470;28;20045;-57
2022/05/05 11:36:37;;;;;;;10.15;9.15;;;15.30;99.90;;;;;;5016300;28;20045;-57
2022/05/05 11:39:06;;;;;;;10.65;8.10;;;15.40;99.90;;;;;;5017017;28;20056;-56
2022/05/05 11:41:34;;;;;;;9.75;8.75;;;15.50;99.90;;;;;;4998735;28;20053;-56
2022/05/05 11:44:14;;;;;;;7.93;6.95;;;15.60;99.90;;;;;;5016546;28;20107;-56
2022/05/05 11:46:42;;;;;;;11.00;8.73;;;15.60;99.90;;;;;;5015956;28;20793;-57
2022/05/05 11:49:10;;;;;;;8.18;7.22;;;15.70;99.90;;;;;;5016716;28;20045;-56
2022/05/05 11:51:37;;;;;;;10.93;7.75;;;15.60;99.90;;;;;;5016399;28;20837;-57
2022/05/05 11:54:08;;;;;;;8.98;6.60;;;15.60;99.90;;;;;;5017094;28;20037;-59
2022/05/05 11:56:37;;;;;;;8.75;7.60;;;15.60;99.90;;;;;;5016704;28;20455;-60
2022/05/05 12:02:19;;;;;;;6.30;5.70;;;15.50;99.90;;;;;;5012383;28;20049;-59
2022/05/05 12:04:50;;;;;;;7.10;6.28;;;15.50;99.90;;;;;;5014640;28;20574;-59
2022/05/05 12:07:22;;;;;;;9.80;8.80;;;15.60;99.90;;;;;;5015581;28;20132;-59
2022/05/05 12:09:51;;;;;;;8.75;7.85;;;15.60;99.90;;;;;;5016624;28;20076;-59
2022/05/05 12:12:22;;;;;;;7.88;6.90;;;15.80;99.90;;;;;;5016295;28;20052;-59
2022/05/05 12:14:52;;;;;;;11.95;8.80;;;15.80;99.90;;;;;;5016586;28;20304;-58
2022/05/05 12:17:24;;;;;;;8.38;7.05;;;16.00;99.90;;;;;;5010004;28;20088;-58
2022/05/05 12:19:56;;;;;;;11.68;7.88;;;16.10;99.90;;;;;;5015655;28;20072;-58
2022/05/05 12:22:31;;;;;;;8.50;7.60;;;16.20;99.90;;;;;;5015497;28;20050;-58
2022/05/05 12:25:04;;;;;;;7.53;6.63;;;16.30;99.90;;;;;;5016125;28;20046;-56
2022/05/05 12:27:32;;;;;;;11.73;9.70;;;16.30;99.90;;;;;;5013880;28;20052;-55
2022/05/05 12:30:00;;;;;;;13.93;10.27;;;16.40;99.90;;;;;;5016048;28;20041;-55
2022/05/05 12:32:27;;;;;;;10.27;8.65;;;16.40;99.90;;;;;;5016018;28;20048;-54
2022/05/05 12:35:30;;;;;;;14.13;8.57;;;16.30;99.90;;;;;;5016401;28;20076;-61
2022/05/05 12:38:02;;;;;;;8.55;7.65;;;16.20;99.90;;;;;;4996136;28;20052;-54
2022/05/05 12:40:29;;;;;;;11.52;8.40;;;16.20;99.90;;;;;;5015967;28;20080;-54
2022/05/05 12:43:00;;;;;;;10.18;8.98;;;16.20;99.90;;;;;;5015556;28;20049;-57
2022/05/05 12:45:31;;;;;;;11.73;8.55;;;16.20;99.90;;;;;;5014997;28;20041;-61
2022/05/05 12:48:00;;;;;;;11.13;7.65;;;16.30;99.90;;;;;;4995444;28;20078;-55
2022/05/05 12:50:46;;;;;;;10.43;9.02;;;16.40;99.90;;;;;;5000398;28;20041;-63
2022/05/05 13:01:45;;;;;;;9.73;7.97;;;17.10;99.90;;;;;;5015616;28;20631;-56
2022/05/05 13:04:15;;;;;;;6.88;6.18;;;17.20;99.90;;;;;;5004815;28;20112;-58
2022/05/05 13:06:47;;;;;;;7.50;6.80;;;17.20;99.90;;;;;;5015409;28;20527;-57
2022/05/05 13:09:15;;;;;;;6.80;6.10;;;17.30;99.90;;;;;;4982042;28;20052;-58
2022/05/05 13:11:44;;;;;;;8.55;6.78;;;17.40;99.90;;;;;;5016015;28;20045;-58
2022/05/05 13:14:12;;;;;;;7.45;6.45;;;17.30;99.90;;;;;;5013513;28;20073;-58
2022/05/05 13:16:39;;;;;;;7.72;6.82;;;17.20;99.90;;;;;;5013150;28;20135;-58
2022/05/05 13:19:07;;;;;;;9.65;7.32;;;17.10;99.90;;;;;;5013541;28;20042;-55
2022/05/05 13:21:36;;;;;;;7.70;6.50;;;17.00;99.90;;;;;;5014976;28;20049;-55
2022/05/05 13:24:03;;;;;;;6.65;5.95;;;17.00;99.90;;;;;;5013803;28;20538;-55
2022/05/05 13:26:29;;;;;;;8.55;6.32;;;16.90;99.90;;;;;;5012904;28;20041;-56
2022/05/05 13:28:57;;;;;;;10.02;6.90;;;17.00;99.90;;;;;;5012910;28;20342;-55
2022/05/05 13:31:24;;;;;;;6.75;6.05;;;17.00;99.90;;;;;;5014590;28;20049;-54
2022/05/05 13:33:52;;;;;;;6.95;6.25;;;16.90;99.90;;;;;;5015301;28;20042;-54
2022/05/05 13:36:19;;;;;;;8.48;7.25;;;16.90;99.90;;;;;;5014192;28;20061;-55
2022/05/05 13:38:46;;;;;;;9.45;6.38;;;16.90;99.90;;;;;;5014564;28;20053;-55
2022/05/05 13:41:31;;;;;;;9.75;7.95;;;16.80;99.90;;;;;;5015434;28;20049;-55
2022/05/05 13:43:58;;;;;;;8.32;7.45;;;16.70;99.90;;;;;;5014556;28;20068;-56
2022/05/05 13:46:25;;;;;;;;;;;16.60;99.90;;;;;;5014828;28;20048;-55
2022/05/05 13:48:53;;;;;;;9.25;7.53;;;16.50;99.90;;;;;;5014383;28;19956;-55
2022/05/05 13:51:20;;;;;;;7.30;5.78;;;16.50;99.90;;;;;;5015314;28;20033;-55
2022/05/05 13:53:46;;;;;;;8.45;6.63;;;16.50;99.90;;;;;;5015244;28;20041;-53
2022/05/05 13:56:13;;;;;;;9.20;8.10;;;16.40;99.90;;;;;;5014768;28;20041;-53
2022/05/05 13:58:40;;;;;;;10.18;8.90;;;16.40;99.90;;;;;;5014497;28;20053;-53
2022/05/05 14:01:07;;;;;;;9.30;8.20;;;16.40;99.90;;;;;;5015287;28;20063;-53